Latest Weather Observations for Horsham

IDV60801

Issued at 7:02 pm EST Saturday 30 July 2016 (issued every 30 minutes, with the page automatically refreshed every 10 minutes)

About weather observations | Map of weather stations | Latest weather observations for VIC | Other Formats
Station Details ID: 079100 Name: HORSHAM AERODROME Lat: -36.67 Lon: 142.17 Height: 133.8 m
Data from the previous 72 hours. | See also: Recent months at Horsham
Date/Time
EST
Temp
°C
App
Temp
°C
Dew
Point
°C
Rel
Hum
%
Delta-T
°C
Wind Press
QNH
hPa
Press
MSL
hPa
Rain since
9am
mm
Dir  Spd
km/h
Gust
km/h
Spd
kts
Gust
kts
30/07:00pm 11.8 7.7 8.6 81 1.6 N 20 24 11 13 1014.0 1014.2 0.0
30/06:30pm 12.2 7.4 8.9 80 1.7 NNE 24 28 13 15 1013.6 1013.8 0.0
30/06:00pm 12.3 7.5 9.0 80 1.7 N 24 30 13 16 1013.7 1013.9 0.0
30/05:30pm 12.4 8.0 9.1 80 1.7 NNE 22 26 12 14 1013.9 1014.1 0.0
30/05:00pm 12.7 7.8 8.6 76 2.1 N 24 30 13 16 1014.1 1014.3 0.0
30/04:30pm 12.9 8.6 9.4 79 1.8 N 22 28 12 15 1014.2 1014.4 0.0
30/04:00pm 13.0 7.9 9.1 77 2.0 N 26 33 14 18 1014.0 1014.2 0.0
30/03:30pm 13.4 7.9 9.3 76 2.1 N 28 37 15 20 1014.7 1014.9 0.0
30/03:00pm 13.6 7.3 9.1 74 2.3 N 32 39 17 21 1015.2 1015.4 0.0
30/02:30pm 13.2 7.8 9.5 78 1.9 N 28 33 15 18 1015.3 1015.5 0.0
30/02:00pm 12.9 8.3 9.7 81 1.6 N 24 32 13 17 1016.6 1016.9 0.0
30/01:30pm 12.4 6.9 9.2 81 1.6 N 28 33 15 18 1017.2 1017.5 0.0
30/01:00pm 12.7 6.8 9.2 79 1.8 N 30 37 16 20 1017.7 1018.0 0.0
30/12:30pm 12.4 7.0 9.4 82 1.5 N 28 35 15 19 1018.4 1018.7 0.0
30/12:23pm 12.2 6.7 9.2 82 1.5 N 28 37 15 20 1018.6 1018.9 0.0
30/12:00pm 11.8 4.9 8.8 82 1.5 N 35 44 19 24 1018.8 1019.1 0.0
30/11:30am 11.3 4.7 8.5 83 1.4 NNE 33 43 18 23 1019.3 1019.6 0.0
30/11:00am 10.8 3.8 8.6 86 1.1 N 35 43 19 23 1019.7 1020.0 0.0
30/10:30am 10.1 3.0 8.2 88 0.9 N 35 44 19 24 1020.0 1020.3 0.0
30/10:29am 10.2 3.2 8.5 89 0.8 N 35 44 19 24 1020.0 1020.3 0.0
30/10:00am 9.5 3.0 8.3 92 0.6 N 32 39 17 21 1020.2 1020.5 0.0
30/09:30am 9.3 3.6 8.2 93 0.5 N 28 35 15 19 1020.3 1020.6 0.0
30/09:00am 9.0 4.0 8.1 94 0.4 N 24 30 13 16 1020.8 1021.1 1.4
30/08:30am 8.9 3.9 8.1 95 0.4 N 24 30 13 16 1020.6 1020.9 1.4
30/08:00am 9.0 5.1 8.7 98 0.1 N 19 22 10 12 1021.2 1021.5 1.4
30/07:30am 8.9 5.8 8.8 99 0.0 N 15 19 8 10 1021.0 1021.3 1.4
30/07:00am 9.0 5.9 8.9 99 0.0 NNE 15 19 8 10 1020.8 1021.1 1.4
30/06:30am 9.0 6.3 8.9 99 0.0 NNE 13 17 7 9 1020.9 1021.2 1.4
30/06:00am 9.4 6.8 9.3 99 0.0 NNE 13 15 7 8 1020.9 1021.2 1.4
30/05:30am 9.2 7.3 9.1 99 0.0 NNE 9 11 5 6 1020.9 1021.2 1.4
30/05:00am 9.1 6.8 9.0 99 0.0 NNE 11 13 6 7 1021.0 1021.3 1.4
30/04:30am 9.0 7.1 8.9 99 0.0 NE 9 11 5 6 1021.0 1021.3 1.4
30/04:00am 9.0 7.4 8.9 99 0.0 NNE 7 9 4 5 1021.4 1021.6 1.4
30/03:30am 9.1 7.6 9.0 99 0.0 NE 7 9 4 5 1021.2 1021.5 1.4
30/03:00am 9.0 7.6 8.9 99 0.0 NE 6 7 3 4 1021.7 1021.9 1.4
30/02:59am 9.0 7.6 8.9 99 0.0 NE 6 7 3 4 1021.7 1021.9 1.4
30/02:42am 8.9 8.3 8.8 99 0.0 NE 2 6 1 3 1021.9 1022.1 1.4
30/02:30am 8.8 7.2 8.7 99 0.0 NNE 7 9 4 5 1022.0 1022.2 1.4
30/02:00am 8.6 7.1 8.5 99 0.0 NNE 6 7 3 4 1022.2 1022.4 1.4
30/01:30am 8.1 7.6 8.0 99 0.0 CALM 0 0 0 0 1022.4 1022.6 1.4
30/01:00am 7.4 6.8 7.3 99 0.0 CALM 0 4 0 2 1022.5 1022.7 1.4
30/12:30am 8.8 6.4 8.7 99 0.0 WNW 11 13 6 7 1022.5 1022.7 1.4
30/12:13am 9.3 7.1 9.2 99 0.0 WNW 11 13 6 7 1022.6 1022.8 1.4
30/12:08am 9.4 7.2 9.3 99 0.0 WNW 11 13 6 7 1022.7 1022.9 1.4
30/12:00am 9.2 6.9 9.1 99 0.0 WNW 11 15 6 8 1022.8 1023.1 1.4
 
Date/Time
EST
Temp
°C
App
Temp
°C
Dew
Point
°C
Rel
Hum
%
Delta-T
°C
Wind Press
QNH
hPa
Press
MSL
hPa
Rain since
9am
mm
Dir  Spd
km/h
Gust
km/h
Spd
kts
Gust
kts
29/11:53pm 8.4 5.9 8.3 99 0.0 NW 11 13 6 7 1022.9 1023.2 1.4
29/11:45pm 8.1 5.2 8.0 99 0.0 NW 13 15 7 8 1023.0 1023.3 1.4
29/11:30pm 8.6 5.8 8.5 99 0.0 NW 13 15 7 8 1022.9 1023.2 1.2
29/11:11pm 9.6 6.7 9.5 99 0.1 NW 15 17 8 9 1022.9 1023.2 1.2
29/11:00pm 10.1 7.3 10.0 99 0.1 NW 15 19 8 10 1022.9 1023.2 1.2
29/10:57pm 10.2 7.4 10.1 99 0.1 NW 15 19 8 10 1023.0 1023.3 1.2
29/10:44pm 10.2 7.4 10.1 99 0.1 NW 15 19 8 10 1022.9 1023.2 1.2
29/10:30pm 10.2 7.8 10.1 99 0.1 NW 13 15 7 8 1022.9 1023.2 1.2
29/10:00pm 10.6 8.7 10.4 99 0.1 NW 11 15 6 8 1023.1 1023.4 1.2
29/09:30pm 10.7 8.4 10.4 98 0.2 NW 13 17 7 9 1023.0 1023.3 1.2
29/09:00pm 10.8 8.9 10.5 98 0.2 NW 11 15 6 8 1022.9 1023.2 1.2
29/08:30pm 10.9 8.6 10.6 98 0.2 WNW 13 17 7 9 1022.8 1023.1 1.2
29/08:19pm 10.9 9.0 10.6 98 0.2 WNW 11 17 6 9 1022.8 1023.1 1.2
29/08:00pm 10.9 8.6 10.6 98 0.2 WNW 13 19 7 10 1022.6 1022.8 1.2
29/07:52pm 11.0 9.5 10.7 98 0.2 WNW 9 17 5 9 1022.6 1022.8 1.2
29/07:41pm 11.1 9.7 10.9 99 0.1 WNW 9 11 5 6 1022.5 1022.7 1.2
29/07:30pm 11.2 9.8 11.0 99 0.1 W 9 13 5 7 1022.5 1022.7 1.2
29/07:00pm 11.3 9.9 11.0 98 0.2 WSW 9 11 5 6 1022.4 1022.6 0.6
29/06:48pm 11.3 9.5 10.8 97 0.3 WSW 11 15 6 8 1022.3 1022.5 0.4
29/06:39pm 11.3 8.7 10.8 97 0.3 WSW 15 19 8 10 1022.2 1022.4 0.4
29/06:30pm 11.4 8.5 10.9 97 0.3 W 17 22 9 12 1022.1 1022.3 0.4
29/06:17pm 11.5 8.1 10.7 95 0.4 W 19 24 10 13 1022.0 1022.2 0.4
29/06:00pm 11.5 9.3 10.9 96 0.3 WNW 13 19 7 10 1021.9 1022.1 0.4
29/05:49pm 11.5 9.4 11.0 97 0.3 WNW 13 15 7 8 1021.8 1022.0 0.4
29/05:30pm 11.5 8.2 10.9 96 0.3 WNW 19 24 10 13 1021.7 1021.9 0.4
29/05:14pm 11.7 8.1 10.6 93 0.6 WNW 20 28 11 15 1021.6 1021.8 0.0
29/05:09pm 11.9 8.5 10.5 91 0.7 WNW 19 26 10 14 1021.6 1021.8 0.0
29/05:00pm 12.2 8.7 10.3 88 1.0 WNW 19 22 10 12 1021.5 1021.7 0.0
29/04:44pm 12.3 8.7 10.4 88 1.0 WNW 20 24 11 13 1021.5 1021.7 0.0
29/04:30pm 12.1 8.4 10.3 89 0.9 WNW 20 26 11 14 1021.5 1021.7 0.0
29/04:00pm 12.3 7.8 10.2 87 1.1 WNW 24 32 13 17 1021.6 1021.8 0.0
29/03:30pm 12.3 7.9 10.5 89 0.9 WNW 24 32 13 17 1021.6 1021.8 0.0
29/03:00pm 12.3 7.8 10.2 87 1.1 WNW 24 30 13 16 1021.5 1021.7 0.0
29/02:30pm 12.0 7.0 9.7 86 1.2 WNW 26 33 14 18 1021.4 1021.6 0.0
29/02:00pm 12.0 7.5 9.9 87 1.1 WNW 24 32 13 17 1021.6 1021.8 0.0
29/01:30pm 11.8 6.2 10.0 89 0.9 WNW 30 39 16 21 1021.9 1022.1 0.0
29/01:00pm 11.2 6.3 10.1 93 0.6 WNW 26 33 14 18 1022.3 1022.5 0.0
29/12:30pm 11.1 6.5 9.7 91 0.7 WNW 24 32 13 17 1022.7 1022.9 0.0
29/12:00pm 10.8 5.5 9.7 93 0.6 WNW 28 37 15 20 1023.1 1023.4 0.0
29/11:57am 10.9 5.5 9.5 91 0.7 NW 28 37 15 20 1023.1 1023.4 0.0
29/11:30am 11.3 6.6 9.2 87 1.1 NW 24 35 13 19 1023.2 1023.5 0.0
29/11:20am 11.0 6.3 9.1 88 1.0 WNW 24 30 13 16 1023.2 1023.5 0.0
29/11:00am 10.7 6.1 9.6 93 0.6 NW 24 30 13 16 1023.6 1023.9 0.0
29/10:59am 10.6 5.9 9.4 92 0.6 NW 24 30 13 16 1023.5 1023.8 0.0
29/10:45am 10.7 5.6 9.3 91 0.7 NW 26 32 14 17 1023.5 1023.8 0.0
29/10:30am 10.3 4.8 9.1 92 0.6 NW 28 33 15 18 1023.6 1023.9 0.0
29/10:27am 10.4 4.9 9.2 92 0.6 NW 28 35 15 19 1023.6 1023.9 0.0
29/10:00am 10.4 5.2 8.8 90 0.8 NW 26 33 14 18 1023.5 1023.8 0.0
29/09:30am 10.1 4.5 8.9 92 0.6 NW 28 32 15 17 1023.7 1024.0 0.0
29/09:00am 9.5 4.7 9.0 97 0.2 NW 24 30 13 16 1023.6 1023.9 0.0
29/08:30am 9.2 4.4 8.7 97 0.2 NW 24 32 13 17 1023.7 1024.0 0.0
29/08:00am 9.0 4.5 8.6 97 0.2 NW 22 30 12 16 1023.5 1023.8 0.0
29/07:30am 9.1 4.2 8.3 95 0.4 NW 24 30 13 16 1023.4 1023.7 0.0
29/07:00am 9.2 4.3 8.3 94 0.4 NW 24 32 13 17 1023.1 1023.4 0.0
29/06:30am 9.3 4.4 8.4 94 0.4 NW 24 32 13 17 1023.1 1023.4 0.0
29/06:00am 9.2 4.7 8.4 95 0.4 NW 22 28 12 15 1022.9 1023.2 0.0
29/05:30am 9.5 5.0 8.4 93 0.5 NW 22 30 12 16 1022.9 1023.2 0.0
29/05:00am 9.6 5.1 8.4 92 0.6 NW 22 28 12 15 1022.8 1023.1 0.0
29/04:37am 9.5 5.5 8.1 91 0.7 NW 19 22 10 12 1022.8 1023.1 0.0
29/04:30am 9.5 5.5 8.1 91 0.7 NW 19 22 10 12 1022.8 1023.1 0.0
29/04:00am 9.5 5.4 7.9 90 0.8 NW 19 24 10 13 1022.8 1023.1 0.0
29/03:30am 9.2 5.5 7.8 91 0.7 NW 17 20 9 11 1022.9 1023.2 0.0
29/03:00am 9.3 6.0 8.1 92 0.6 NW 15 17 8 9 1023.2 1023.5 0.0
29/02:30am 9.3 5.3 8.2 93 0.5 WNW 19 24 10 13 1023.3 1023.6 0.0
29/02:00am 9.4 5.1 8.0 91 0.7 NW 20 28 11 15 1023.2 1023.5 0.0
29/01:30am 9.8 5.6 7.4 85 1.1 NW 19 28 10 15 1023.5 1023.8 0.0
29/01:00am 9.6 6.5 7.2 85 1.1 NNW 13 17 7 9 1023.7 1024.0 0.0
29/12:30am 9.9 6.4 7.0 82 1.4 NNW 15 19 8 10 1023.9 1024.2 0.0
29/12:00am 9.9 6.0 7.0 82 1.4 NW 17 19 9 10 1024.3 1024.6 0.0
 
Date/Time
EST
Temp
°C
App
Temp
°C
Dew
Point
°C
Rel
Hum
%
Delta-T
°C
Wind Press
QNH
hPa
Press
MSL
hPa
Rain since
9am
mm
Dir  Spd
km/h
Gust
km/h
Spd
kts
Gust
kts
28/11:30pm 10.0 6.1 6.9 81 1.5 NW 17 20 9 11 1024.2 1024.5 0.0
28/11:00pm 10.0 6.5 7.1 82 1.4 NW 15 17 8 9 1024.2 1024.5 0.0
28/10:30pm 10.2 6.6 6.9 80 1.6 NW 15 19 8 10 1024.3 1024.6 0.0
28/10:00pm 10.4 6.5 7.1 80 1.6 NW 17 22 9 12 1024.8 1025.1 0.0
28/09:30pm 10.4 6.5 7.3 81 1.5 NW 17 20 9 11 1024.9 1025.2 0.0
28/09:00pm 10.6 6.8 7.7 82 1.4 WNW 17 26 9 14 1025.1 1025.4 0.0
28/08:30pm 10.6 6.9 8.0 84 1.3 NW 17 20 9 11 1025.2 1025.5 0.0
28/08:00pm 10.8 6.8 8.2 84 1.3 WNW 19 22 10 12 1025.3 1025.6 0.0
28/07:30pm 11.0 6.8 8.4 84 1.3 WNW 20 24 11 13 1025.1 1025.4 0.0
28/07:00pm 11.3 7.8 8.7 84 1.3 WNW 17 22 9 12 1025.0 1025.3 0.0
28/06:30pm 11.4 8.3 9.0 85 1.2 WNW 15 20 8 11 1025.0 1025.3 0.0
28/06:00pm 11.5 8.5 9.1 85 1.2 WNW 15 17 8 9 1024.7 1025.0 0.0
28/05:30pm 11.9 9.0 8.0 77 1.9 W 13 17 7 9 1024.7 1025.0 0.0
28/05:00pm 12.6 7.7 6.9 68 2.7 W 22 30 12 16 1024.6 1024.9 0.0
28/04:30pm 13.0 9.4 8.5 74 2.3 W 17 22 9 12 1024.6 1024.9 0.0
28/04:00pm 13.1 8.8 8.0 71 2.5 W 20 26 11 14 1024.5 1024.8 0.0
28/03:30pm 13.3 9.0 8.0 70 2.6 W 20 26 11 14 1024.5 1024.8 0.0
28/03:00pm 13.3 8.7 8.2 71 2.5 W 22 28 12 15 1024.5 1024.8 0.0
28/02:30pm 13.4 8.6 7.4 67 3.0 W 22 32 12 17 1024.4 1024.7 0.0
28/02:00pm 13.5 8.6 8.4 71 2.5 W 24 35 13 19 1024.6 1024.9 0.0
28/01:30pm 13.0 8.3 7.7 70 2.6 W 22 30 12 16 1024.9 1025.2 0.0
28/01:00pm 13.0 7.5 7.5 69 2.7 W 26 30 14 16 1025.3 1025.6 0.0
28/12:30pm 12.8 7.6 7.3 69 2.7 W 24 33 13 18 1025.7 1026.0 0.0
28/12:00pm 12.3 7.5 8.8 79 1.7 WNW 24 30 13 16 1026.1 1026.4 0.0
28/11:30am 11.6 7.8 9.2 85 1.2 NW 19 24 10 13 1026.5 1026.8 0.0
28/11:00am 11.0 7.0 8.9 87 1.0 NW 20 24 11 13 1026.7 1027.0 0.0
28/10:30am 10.3 5.9 9.1 92 0.6 NW 22 28 12 15 1026.8 1027.1 0.0
28/10:24am 10.3 6.3 9.1 92 0.6 WNW 20 28 11 15 1026.7 1027.0 0.0
28/10:13am 10.1 6.1 9.0 93 0.5 WNW 20 26 11 14 1026.7 1027.0 0.0
28/10:00am 10.1 6.3 9.0 93 0.5 WNW 19 24 10 13 1026.5 1026.8 0.0
28/09:30am 9.5 6.0 8.7 95 0.4 NW 17 20 9 11 1026.3 1026.6 0.0
28/09:00am 9.1 6.4 8.8 98 0.1 NW 13 17 7 9 1026.1 1026.4 0.2
28/08:46am 8.9 6.2 8.8 99 0.0 NW 13 17 7 9 1026.1 1026.4 0.2
28/08:30am 8.7 5.9 8.6 99 0.0 NW 13 19 7 10 1026.0 1026.3 0.2
28/08:25am 8.7 5.5 8.6 99 0.0 NW 15 19 8 10 1025.9 1026.2 0.2
28/08:00am 8.5 5.2 8.2 98 0.1 WNW 15 19 8 10 1025.8 1026.1 0.0
28/07:53am 8.5 5.2 8.2 98 0.1 WNW 15 19 8 10 1025.7 1026.0 0.0
28/07:30am 8.3 5.4 8.0 98 0.1 NW 13 15 7 8 1025.6 1025.9 0.0
28/07:00am 8.3 5.4 8.0 98 0.1 WNW 13 17 7 9 1025.5 1025.8 0.0
28/06:30am 8.2 4.5 7.9 98 0.1 WNW 17 22 9 12 1025.1 1025.4 0.0
28/06:00am 7.8 4.4 7.5 98 0.1 NW 15 20 8 11 1024.9 1025.2 0.0
28/05:46am 7.8 4.0 7.5 98 0.1 NW 17 20 9 11 1024.9 1025.2 0.0
28/05:35am 7.9 3.7 7.6 98 0.1 WNW 19 22 10 12 1024.9 1025.2 0.0
28/05:30am 7.9 4.1 7.6 98 0.1 WNW 17 22 9 12 1025.0 1025.3 0.0
28/05:22am 7.7 3.9 7.4 98 0.1 WNW 17 20 9 11 1024.9 1025.2 0.0
28/05:00am 7.7 3.8 7.3 97 0.2 NW 17 19 9 10 1024.6 1024.9 0.0
28/04:30am 7.6 4.1 7.0 96 0.3 NW 15 19 8 10 1024.6 1024.9 0.0
28/04:25am 7.6 4.1 7.0 96 0.3 NW 15 19 8 10 1024.6 1024.9 0.0
28/04:00am 7.5 4.7 6.9 96 0.3 NW 11 15 6 8 1024.5 1024.8 0.0
28/03:30am 7.5 4.3 6.9 96 0.3 WNW 13 17 7 9 1024.5 1024.8 0.0
28/03:00am 7.7 4.2 7.0 95 0.3 NW 15 17 8 9 1024.7 1025.0 0.0
28/02:30am 7.4 3.8 6.8 96 0.3 NNW 15 19 8 10 1024.9 1025.2 0.0
28/02:00am 7.3 4.5 6.9 97 0.2 NW 11 13 6 7 1024.8 1025.1 0.0
28/01:30am 6.9 4.0 6.3 96 0.3 NW 11 13 6 7 1024.6 1024.9 0.0
28/01:00am 7.8 4.6 6.9 94 0.4 W 13 17 7 9 1024.5 1024.8 0.0
28/12:30am 7.9 4.4 7.0 94 0.4 W 15 20 8 11 1024.7 1025.0 0.0
28/12:00am 7.5 3.8 6.4 93 0.5 NW 15 19 8 10 1024.8 1025.1 0.0
 
Date/Time
EST
Temp
°C
App
Temp
°C
Dew
Point
°C
Rel
Hum
%
Delta-T
°C
Wind Press
QNH
hPa
Press
MSL
hPa
Rain since
9am
mm
Dir  Spd
km/h
Gust
km/h
Spd
kts
Gust
kts
27/11:30pm 7.4 3.7 6.3 93 0.5 WNW 15 17 8 9 1024.9 1025.2 0.0
27/11:00pm 7.2 3.9 6.3 94 0.4 WNW 13 13 7 7 1024.8 1025.1 0.0
27/10:30pm 7.3 4.3 5.9 91 0.6 WNW 11 13 6 7 1024.7 1025.0 0.0
27/10:00pm 8.5 4.5 6.5 87 0.9 W 17 20 9 11 1024.8 1025.1 0.0
27/09:30pm 8.2 4.9 6.3 88 0.9 W 13 15 7 8 1024.9 1025.2 0.0
27/09:00pm 8.5 5.1 6.1 85 1.1 W 13 15 7 8 1024.7 1025.0 0.0
27/08:30pm 8.5 4.7 6.0 84 1.1 W 15 19 8 10 1024.6 1024.9 0.0
27/08:00pm 7.6 4.6 6.2 91 0.6 WNW 11 13 6 7 1024.0 1024.3 0.0
27/07:30pm 6.8 3.7 5.6 92 0.5 WNW 11 13 6 7 1023.6 1023.9 0.0

Other Formats:

Comma delimited format used in spreadsheet applications
http://www.bom.gov.au/fwo/IDV60801/IDV60801.95839.axf

JavaScript Object Notation format (JSON) in row-major order
http://www.bom.gov.au/fwo/IDV60801/IDV60801.95839.json